Del Mar, CA

8:28 PM PDT on September 01, 2014 (GMT -0700)
Del Mar Heights | Change Station
CLOSE
Current Station
Personal Weather Station
Location: Del Mar, CA
Elevation: 240 ft
Nearby Weather Stations

Elev 240 ft 32.95 °N, 117.25 °W | Updated 25 seconds ago

Clear
Clear
66.9 °F
Feels Like 66.9 °F
N
0.0
Wind Variable Wind from SSW
Gusts 0.0 mph

Today
High -- | Low -- °F
--% Chance of Precip.
Yesterday
High -- | Low -- °F
Precip. -- in
6:23 AM 7:13 PM
Waxing Crescent, 47% visible
Pressure 29.80 in
Visibility 10.0 miles
Clouds Few 1000 ft
Dew Point 64 °F
Humidity 91%
Rainfall 0.00 in
Snow Depth Not available.
UV 0 out of 12
Pollen 8.30 out of 12
Ozone Good
PM2.5 Good
Flu Activity Not available.
METAR KNKX 020255Z 24004KT 10SM FEW010 20/16 A2981 RMK AO2 SLP089 T02000161 53005 $

More Conditions Fewer Conditions

Pressure 29.80 in
Visibility 10.0 miles
Clouds Few 1000 ft
Dew Point 64 °F
Humidity 91%
Rainfall 0.00 in
Snow Depth Not available.
UV 0 out of 12
Pollen 8.30 out of 12
Ozone Good
PM2.5 Good
Flu Activity Not available.
METAR KNKX 020255Z 24004KT 10SM FEW010 20/16 A2981 RMK AO2 SLP089 T02000161 53005 $

More Conditions Fewer Conditions

10-Day Weather Forecast

Almanac

Astronomy

Sep. 01, 2014 Rise Set
Actual Time 6:23 AM PDT 7:13 PM PDT
Civil Twilight 5:58 AM PDT 7:38 PM PDT
Nautical Twilight 5:28 AM PDT 8:08 PM PDT
Astronomical Twilight 4:57 AM PDT 8:38 PM PDT
Moon 12:52 PM PDT (9/1) 11:40 PM PDT (9/1)
Length of Visible Light 13h 40m
Length of Day
12h 50m
Tomorrow will be 1m 57s shorter.
Waxing Crescent, 47% of the Moon is Illuminated
Today
Waxing Crescent
Sep 2
First Quarter
Sep 8
Full
Sep 15
Last Quarter
Sep 24
New

Today's Extremes

State Highs State Lows

Community

WunderPhotos

Upload Photos

1,749,546 photos uploaded!

WunderBlogs® & News

Nearby

Air Quality

  Air Quality AQ Index Pollutant
Yesterday Moderate
PM2.5
Yesterday Good
OZONE
Current Good
PM2.5
Current Good
OZONE
Monday Good
OZONE
Tuesday Good
PM2.5

Snow Depth

Station Depth Elevation
Echo Peak 0 in 7800 ft
CSS Lab 1 in 6900 ft
Adin Mountain 1 in 6200 ft
Cedar Pass 0 in 7100 ft

Earthquake Activity

City Distance Mag. Time & Date
Holtville, California 106 miles 2.5 5:43 PM PDT
2014-09-01
Holtville, California 107 miles 2.5 5:26 PM PDT
2014-09-01
Malibu, California 119 miles 2.5 8:11 AM PDT
2014-08-30
Minimum magnitude displayed is 2.5.

Coastal Water Temperatures

Place Temperature
La Jolla, CA 73.0 °F
San Diego, CA 75.9 °F

Nearby Weather Stations